nws-alerts: Checking more than four warning/county codes can delay the loading of your pages. You should use a cron job to get the data.
EllijayWeather Station Historical Data
 
Daily Summary for August 25, 2019 Units:  English    Metric   Both
Daily Weekly Monthly Yearly Custom
  Current: High: Low: Average:
Temperature: 67.5 °F 71.8 °F 65.7 °F 67.8 °F
Dew Point: 65.1 °F 67.8 °F 61.3 °F 63.9 °F
Humidity: 92% 94% 81% 87%
Wind Speed: 0mph 4.9mph 0mph 0.2mph
Wind Gust: 0mph 7mph - -
WindCalm - - ESE
Pressure: 30.06 in 30.12 in 30.03 in -
Precipitation: 0.02 in      
Historical Graphs
 
 
Tabular Data for August 25, 2019
Time Temperature Dew Point Pressure Wind Wind Speed Wind Gust Humidity Rainfall Rate (Hourly) solar
00:00 70 °F 67.5 °F 30.09 in Calm   2 mph 92% 0 in meteobridge W/m2
00:05 70 °F 67.5 °F 30.09 in Calm   5 mph 92% 0 in meteobridge W/m2
00:10 70 °F 67.8 °F 30.09 in Calm   1 mph 93% 0 in meteobridge W/m2
00:15 69.8 °F 67.6 °F 30.09 in Calm   1 mph 93% 0 in meteobridge W/m2
00:20 69.6 °F 67.3 °F 30.09 in Calm   2 mph 92% 0 in meteobridge W/m2
00:25 69.6 °F 67.5 °F 30.09 in SE 0.9 mph 6 mph 93% 0 in meteobridge W/m2
00:30 69.4 °F 67.3 °F 30.09 in Calm     93% 0 in meteobridge W/m2
00:35 69.4 °F 67.3 °F 30.09 in Calm     93% 0 in meteobridge W/m2
00:40 69.3 °F 67.1 °F 30.09 in Calm   1 mph 93% 0 in meteobridge W/m2
00:45 69.1 °F 66.7 °F 30.09 in Calm   1 mph 92% 0 in meteobridge W/m2
00:50 69.1 °F 66.7 °F 30.09 in Calm   4 mph 92% 0 in meteobridge W/m2
00:55 68.7 °F 66 °F 30.09 in Calm   1 mph 91% 0 in meteobridge W/m2
01:00 68.5 °F 65.8 °F 30.08 in ESE 4 mph 4 mph 91% 0 in meteobridge W/m2
01:05 68.4 °F 65.7 °F 30.08 in SE 2 mph 6 mph 91% 0 in meteobridge W/m2
01:10 68.4 °F 66 °F 30.08 in SE 0.9 mph 1 mph 92% 0 in meteobridge W/m2
01:15 68.2 °F 65.5 °F 30.08 in Calm   2 mph 91% 0 in meteobridge W/m2
01:20 68 °F 65.7 °F 30.08 in Calm   1 mph 92% 0 in meteobridge W/m2
01:25 67.8 °F 65.5 °F 30.08 in SE 0.9 mph 1 mph 92% 0 in meteobridge W/m2
01:30 67.6 °F 65.3 °F 30.08 in Calm   2 mph 92% 0 in meteobridge W/m2
01:35 67.6 °F 64.9 °F 30.08 in Calm   4 mph 91% 0 in meteobridge W/m2
01:40 67.5 °F 64.8 °F 30.07 in SE 0.9 mph 1 mph 91% 0 in meteobridge W/m2
01:45 67.5 °F 64.8 °F 30.07 in Calm     91% 0 in meteobridge W/m2
01:50 67.5 °F 64.8 °F 30.07 in Calm     91% 0 in meteobridge W/m2
01:55 67.3 °F 64.9 °F 30.07 in Calm     92% 0 in meteobridge W/m2
02:00 67.3 °F 64.9 °F 30.07 in Calm     92% 0 in meteobridge W/m2
02:05 67.1 °F 64.4 °F 30.07 in Calm     91% 0 in meteobridge W/m2
02:10 67.1 °F 64.4 °F 30.07 in Calm     91% 0 in meteobridge W/m2
02:15 67.1 °F 64.4 °F 30.07 in Calm   5 mph 91% 0 in meteobridge W/m2
02:20 66.9 °F 64.2 °F 30.07 in Calm   2 mph 91% 0 in meteobridge W/m2
02:25 66.9 °F 64.2 °F 30.07 in Calm   1 mph 91% 0 in meteobridge W/m2
02:30 66.7 °F 64 °F 30.06 in Calm   2 mph 91% 0 in meteobridge W/m2
02:35 66.7 °F 64 °F 30.06 in ESE 2 mph 2 mph 91% 0 in meteobridge W/m2
02:40 66.6 °F 63.9 °F 30.06 in Calm   2 mph 91% 0 in meteobridge W/m2
02:45 66.6 °F 63.9 °F 30.06 in Calm     91% 0 in meteobridge W/m2
02:50 66.6 °F 63.5 °F 30.06 in Calm   1 mph 90% 0 in meteobridge W/m2
02:55 66.4 °F 63.3 °F 30.06 in Calm   1 mph 90% 0 in meteobridge W/m2
03:00 66.4 °F 63.3 °F 30.06 in Calm     90% 0 in meteobridge W/m2
03:05 66.4 °F 63.3 °F 30.06 in East 0.9 mph 5 mph 90% 0 in meteobridge W/m2
03:10 66.4 °F 63.3 °F 30.06 in Calm     90% 0 in meteobridge W/m2
03:15 66.4 °F 63.3 °F 30.06 in Calm   2 mph 90% 0 in meteobridge W/m2
03:20 66.4 °F 63.3 °F 30.06 in Calm   1 mph 90% 0 in meteobridge W/m2
03:25 66.4 °F 63.7 °F 30.06 in Calm   1 mph 91% 0 in meteobridge W/m2
03:30 66.2 °F 63.1 °F 30.06 in Calm   1 mph 90% 0 in meteobridge W/m2
03:35 66.2 °F 63.1 °F 30.06 in Calm     90% 0 in meteobridge W/m2
03:40 66 °F 63 °F 30.06 in Calm     90% 0 in meteobridge W/m2
03:45 66 °F 63 °F 30.06 in Calm   1 mph 90% 0 in meteobridge W/m2
03:50 66 °F 63 °F 30.05 in ESE 0.9 mph 1 mph 90% 0 in meteobridge W/m2
03:55 66 °F 63 °F 30.05 in Calm   1 mph 90% 0 in meteobridge W/m2
04:00 66 °F 63 °F 30.05 in Calm     90% 0 in meteobridge W/m2
04:05 66 °F 63.3 °F 30.05 in ESE 0.9 mph 1 mph 91% 0 in meteobridge W/m2
04:10 65.8 °F 62.8 °F 30.05 in Calm   5 mph 90% 0 in meteobridge W/m2
04:15 65.8 °F 63.1 °F 30.05 in Calm   1 mph 91% 0 in meteobridge W/m2
04:20 65.8 °F 63.1 °F 30.05 in Calm   1 mph 91% 0 in meteobridge W/m2
04:25 65.8 °F 62.8 °F 30.05 in Calm   1 mph 90% 0 in meteobridge W/m2
04:30 65.8 °F 62.8 °F 30.05 in Calm   4 mph 90% 0 in meteobridge W/m2
04:35 65.8 °F 62.8 °F 30.05 in Calm     90% 0 in meteobridge W/m2
04:40 65.8 °F 63.1 °F 30.05 in Calm   1 mph 91% 0 in meteobridge W/m2
04:45 65.8 °F 62.8 °F 30.05 in Calm   1 mph 90% 0 in meteobridge W/m2
04:50 65.8 °F 62.8 °F 30.05 in Calm     90% 0 in meteobridge W/m2
04:55 65.8 °F 63.1 °F 30.05 in Calm     91% 0 in meteobridge W/m2
05:00 65.8 °F 63.1 °F 30.05 in Calm     91% 0 in meteobridge W/m2
05:05 65.8 °F 62.8 °F 30.04 in Calm     90% 0 in meteobridge W/m2
05:10 65.8 °F 62.8 °F 30.04 in ESE 2 mph 2 mph 90% 0 in meteobridge W/m2
05:15 65.8 °F 62.8 °F 30.04 in Calm     90% 0 in meteobridge W/m2
05:20 65.8 °F 62.8 °F 30.04 in ESE 0.9 mph 1 mph 90% 0 in meteobridge W/m2
05:25 65.8 °F 63.1 °F 30.04 in Calm     91% 0 in meteobridge W/m2
05:30 65.8 °F 62.8 °F 30.04 in Calm   2 mph 90% 0 in meteobridge W/m2
05:35 65.8 °F 63.1 °F 30.05 in ESE 2 mph 4 mph 91% 0 in meteobridge W/m2
05:40 65.8 °F 62.8 °F 30.05 in Calm     90% 0 in meteobridge W/m2
05:45 65.7 °F 62.6 °F 30.05 in Calm   2 mph 90% 0 in meteobridge W/m2
05:50 65.7 °F 62.6 °F 30.05 in Calm     90% 0 in meteobridge W/m2
05:55 65.8 °F 63.1 °F 30.05 in Calm   1 mph 91% 0 in meteobridge W/m2
06:00 65.8 °F 62.8 °F 30.05 in Calm     90% 0 in meteobridge W/m2
06:05 65.8 °F 62.8 °F 30.05 in SE 0.9 mph 1 mph 90% 0 in meteobridge W/m2
06:10 65.8 °F 62.8 °F 30.05 in Calm     90% 0 in meteobridge W/m2
06:15 65.8 °F 62.8 °F 30.05 in Calm     90% 0 in meteobridge W/m2
06:20 65.8 °F 62.8 °F 30.05 in Calm   1 mph 90% 0 in meteobridge W/m2
06:25 65.8 °F 62.8 °F 30.05 in Calm   1 mph 90% 0 in meteobridge W/m2
06:30 65.8 °F 62.8 °F 30.05 in Calm     90% 0 in meteobridge W/m2
06:35 65.8 °F 62.8 °F 30.06 in Calm   2 mph 90% 0 in meteobridge W/m2
06:40 65.8 °F 62.8 °F 30.06 in East 0.9 mph 1 mph 90% 0 in meteobridge W/m2
06:45 65.7 °F 62.6 °F 30.06 in Calm   1 mph 90% 0 in meteobridge W/m2
06:50 65.7 °F 62.6 °F 30.06 in Calm   2 mph 90% 0 in meteobridge W/m2
06:55 65.7 °F 62.6 °F 30.06 in Calm   2 mph 90% 0 in meteobridge W/m2
07:00 65.7 °F 62.6 °F 30.06 in Calm   1 mph 90% 0 in meteobridge W/m2
07:05 65.7 °F 62.2 °F 30.07 in Calm   1 mph 89% 0 in meteobridge W/m2
07:10 65.7 °F 62.6 °F 30.07 in Calm   1 mph 90% 0 in meteobridge W/m2
07:15 65.7 °F 62.6 °F 30.07 in Calm     90% 0 in meteobridge W/m2
07:20 65.8 °F 62.4 °F 30.08 in Calm   2 mph 89% 0 in meteobridge W/m2
07:25 65.8 °F 62.4 °F 30.08 in Calm   1 mph 89% 0 in meteobridge W/m2
07:30 65.8 °F 62.4 °F 30.08 in Calm     89% 0 in meteobridge W/m2
07:35 65.8 °F 62.4 °F 30.08 in Calm   1 mph 89% 0 in meteobridge W/m2
07:40 65.8 °F 62.4 °F 30.08 in Calm     89% 0 in meteobridge W/m2
07:45 65.8 °F 62.4 °F 30.08 in Calm     89% 0 in meteobridge W/m2
07:50 65.8 °F 62.4 °F 30.08 in Calm   1 mph 89% 0 in meteobridge W/m2
07:55 65.8 °F 62.2 °F 30.09 in Calm     88% 0 in meteobridge W/m2
08:00 65.7 °F 62.1 °F 30.09 in Calm   1 mph 88% 0 in meteobridge W/m2
08:05 65.7 °F 62.1 °F 30.09 in Calm   1 mph 88% 0 in meteobridge W/m2
08:10 65.7 °F 62.1 °F 30.09 in Calm   1 mph 88% 0 in meteobridge W/m2
08:15 65.7 °F 62.1 °F 30.09 in ESE 0.9 mph 4 mph 88% 0 in meteobridge W/m2
08:20 65.7 °F 61.7 °F 30.09 in Calm   4 mph 87% 0 in meteobridge W/m2
08:25 65.7 °F 62.1 °F 30.09 in Calm   2 mph 88% 0 in meteobridge W/m2
08:30 65.7 °F 62.1 °F 30.09 in Calm     88% 0 in meteobridge W/m2
08:35 65.7 °F 61.7 °F 30.09 in ESE 0.9 mph 2 mph 87% 0 in meteobridge W/m2
08:40 65.8 °F 61.9 °F 30.09 in East 0.9 mph 4 mph 87% 0 in meteobridge W/m2
08:45 65.7 °F 61.7 °F 30.09 in Calm   1 mph 87% 0 in meteobridge W/m2
08:50 65.7 °F 61.7 °F 30.09 in Calm   1 mph 87% 0 in meteobridge W/m2
08:55 65.7 °F 61.7 °F 30.09 in Calm   4 mph 87% 0 in meteobridge W/m2
09:00 65.7 °F 61.3 °F 30.09 in ESE 0.9 mph 2 mph 86% 0 in meteobridge W/m2
09:05 65.8 °F 61.5 °F 30.09 in SE 0.9 mph 1 mph 86% 0 in meteobridge W/m2
09:10 66 °F 61.7 °F 30.09 in Calm   1 mph 86% 0 in meteobridge W/m2
09:15 66.2 °F 61.9 °F 30.09 in Calm   1 mph 86% 0 in meteobridge W/m2
09:20 66.2 °F 61.9 °F 30.09 in Calm   1 mph 86% 0 in meteobridge W/m2
09:25 66.4 °F 62.4 °F 30.09 in Calm     87% 0 in meteobridge W/m2
09:30 66.4 °F 62.1 °F 30.09 in Calm   1 mph 86% 0 in meteobridge W/m2
09:35 66.4 °F 61.7 °F 30.09 in Calm   1 mph 85% 0 in meteobridge W/m2
09:40 66.6 °F 61.9 °F 30.09 in ESE 0.9 mph 2 mph 85% 0 in meteobridge W/m2
09:45 66.7 °F 62.1 °F 30.09 in Calm   1 mph 85% 0 in meteobridge W/m2
09:50 67.3 °F 62.6 °F 30.10 in Calm     85% 0 in meteobridge W/m2
09:55 67.5 °F 62.8 °F 30.09 in Calm     85% 0 in meteobridge W/m2
10:00 67.6 °F 62.6 °F 30.09 in SE 0.9 mph 1 mph 84% 0 in meteobridge W/m2
10:05 67.6 °F 62.6 °F 30.09 in SE 0.9 mph 7 mph 84% 0 in meteobridge W/m2
10:10 67.5 °F 62.4 °F 30.10 in Calm   1 mph 84% 0 in meteobridge W/m2
10:15 67.5 °F 62.4 °F 30.10 in SE 4.9 mph 5 mph 84% 0 in meteobridge W/m2
10:20 67.3 °F 61.9 °F 30.10 in Calm   4 mph 83% 0 in meteobridge W/m2
10:25 66.9 °F 62.2 °F 30.10 in Calm   4 mph 85% 0 in meteobridge W/m2
10:30 67.3 °F 62.6 °F 30.10 in ESE 0.9 mph 2 mph 85% 0 in meteobridge W/m2
10:35 67.3 °F 62.2 °F 30.10 in Calm   5 mph 84% 0 in meteobridge W/m2
10:40 67.5 °F 62.8 °F 30.11 in Calm   1 mph 85% 0 in meteobridge W/m2
10:45 67.6 °F 62.6 °F 30.11 in Calm   2 mph 84% 0 in meteobridge W/m2
10:50 67.6 °F 62.2 °F 30.11 in Calm   4 mph 83% 0 in meteobridge W/m2
10:55 67.6 °F 62.6 °F 30.11 in Calm     84% 0 in meteobridge W/m2
11:00 67.6 °F 62.6 °F 30.11 in Calm     84% 0 in meteobridge W/m2
11:05 67.5 °F 62.4 °F 30.11 in Calm   1 mph 84% 0 in meteobridge W/m2
11:10 67.3 °F 62.2 °F 30.11 in Calm   1 mph 84% 0 in meteobridge W/m2
11:15 67.3 °F 62.6 °F 30.11 in Calm   5 mph 85% 0 in meteobridge W/m2
11:20 66.9 °F 62.2 °F 30.12 in Calm   1 mph 85% 0 in meteobridge W/m2
11:25 66.7 °F 61.7 °F 30.12 in Calm   4 mph 84% 0 in meteobridge W/m2
11:30 66.7 °F 62.1 °F 30.11 in ESE 0.9 mph 1 mph 85% 0 in meteobridge W/m2
11:35 66.6 °F 61.5 °F 30.11 in ESE 0.9 mph 1 mph 84% 0 in meteobridge W/m2
11:40 66.6 °F 61.9 °F 30.11 in Calm   1 mph 85% 0 in meteobridge W/m2
11:45 66.7 °F 62.1 °F 30.11 in Calm   2 mph 85% 0 in meteobridge W/m2
11:50 66.9 °F 62.2 °F 30.11 in Calm     85% 0 in meteobridge W/m2
11:55 66.9 °F 62.2 °F 30.11 in Calm   5 mph 85% 0 in meteobridge W/m2
12:00 66.7 °F 62.1 °F 30.11 in Calm     85% 0 in meteobridge W/m2
12:05 66.9 °F 62.2 °F 30.11 in Calm   2 mph 85% 0 in meteobridge W/m2
12:10 66.9 °F 62.2 °F 30.11 in SE 2 mph 4 mph 85% 0 in meteobridge W/m2
12:15 66.9 °F 62.2 °F 30.11 in ESE 4.9 mph 5 mph 85% 0 in meteobridge W/m2
12:20 66.9 °F 62.2 °F 30.11 in Calm   2 mph 85% 0 in meteobridge W/m2
12:25 66.9 °F 62.2 °F 30.11 in Calm   2 mph 85% 0 in meteobridge W/m2
12:30 67.1 °F 62.4 °F 30.11 in SE 4.9 mph 5 mph 85% 0 in meteobridge W/m2
12:35 67.3 °F 62.2 °F 30.11 in Calm   1 mph 84% 0 in meteobridge W/m2
12:40 67.5 °F 62.8 °F 30.11 in Calm     85% 0 in meteobridge W/m2
12:45 67.6 °F 63 °F 30.11 in ESE 0.9 mph 1 mph 85% 0 in meteobridge W/m2
12:50 67.6 °F 62.6 °F 30.11 in SSE 0.9 mph 4 mph 84% 0 in meteobridge W/m2
12:55 67.5 °F 62.4 °F 30.11 in ESE 4 mph 4 mph 84% 0 in meteobridge W/m2
13:00 67.5 °F 62.4 °F 30.11 in Calm   1 mph 84% 0 in meteobridge W/m2
13:05 67.5 °F 62.8 °F 30.10 in ESE 0.9 mph 1 mph 85% 0 in meteobridge W/m2
13:10 67.6 °F 63 °F 30.10 in ESE 0.9 mph 4 mph 85% 0 in meteobridge W/m2
13:15 67.8 °F 62.8 °F 30.10 in ESE 0.9 mph 4 mph 84% 0 in meteobridge W/m2
13:20 68 °F 63 °F 30.10 in Calm   2 mph 84% 0 in meteobridge W/m2
13:25 68.4 °F 63.3 °F 30.10 in Calm     84% 0 in meteobridge W/m2
13:30 68.7 °F 63 °F 30.10 in ESE 0.9 mph 4 mph 82% 0 in meteobridge W/m2
13:35 68.7 °F 63.7 °F 30.10 in Calm     84% 0 in meteobridge W/m2
13:40 68.7 °F 63.3 °F 30.10 in ESE 0.9 mph 1 mph 83% 0 in meteobridge W/m2
13:45 68.9 °F 63.5 °F 30.10 in Calm     83% 0 in meteobridge W/m2
13:50 69.1 °F 64 °F 30.10 in Calm   1 mph 84% 0 in meteobridge W/m2
13:55 69.1 °F 63.7 °F 30.09 in Calm     83% 0 in meteobridge W/m2
14:00 69.4 °F 64.4 °F 30.09 in Calm     84% 0 in meteobridge W/m2
14:05 69.6 °F 64.2 °F 30.09 in Calm     83% 0 in meteobridge W/m2
14:10 69.8 °F 64 °F 30.09 in Calm     82% 0 in meteobridge W/m2
14:15 69.6 °F 63.9 °F 30.09 in Calm     82% 0 in meteobridge W/m2
14:20 69.4 °F 63.7 °F 30.09 in Calm   1 mph 82% 0 in meteobridge W/m2
14:25 69.4 °F 64.4 °F 30.09 in Calm   1 mph 84% 0 in meteobridge W/m2
14:30 69.3 °F 63.9 °F 30.09 in Calm     83% 0 in meteobridge W/m2
14:35 69.1 °F 63.7 °F 30.08 in Calm   1 mph 83% 0 in meteobridge W/m2
14:40 69.1 °F 63.7 °F 30.08 in Calm   4 mph 83% 0 in meteobridge W/m2
14:45 69.3 °F 63.9 °F 30.08 in Calm     83% 0 in meteobridge W/m2
14:50 69.4 °F 64 °F 30.08 in SE 0.9 mph 1 mph 83% 0 in meteobridge W/m2
14:55 69.4 °F 64 °F 30.08 in Calm   1 mph 83% 0 in meteobridge W/m2
15:00 69.6 °F 64.2 °F 30.07 in SE 0.9 mph 1 mph 83% 0 in meteobridge W/m2
15:05 70 °F 64.6 °F 30.07 in Calm     83% 0 in meteobridge W/m2
15:10 70.2 °F 64.4 °F 30.07 in Calm   1 mph 82% 0 in meteobridge W/m2
15:15 70.3 °F 64.9 °F 30.06 in Calm   4 mph 83% 0 in meteobridge W/m2
15:20 70.3 °F 64.2 °F 30.06 in Calm     81% 0 in meteobridge W/m2
15:25 70.3 °F 64.6 °F 30.06 in Calm     82% 0 in meteobridge W/m2
15:30 70.3 °F 64.6 °F 30.06 in Calm     82% 0 in meteobridge W/m2
15:35 70.3 °F 64.6 °F 30.05 in Calm   1 mph 82% 0 in meteobridge W/m2
15:40 70.3 °F 64.9 °F 30.05 in Calm     83% 0 in meteobridge W/m2
15:45 70.3 °F 64.9 °F 30.05 in Calm     83% 0 in meteobridge W/m2
15:50 70.5 °F 65.1 °F 30.04 in Calm     83% 0 in meteobridge W/m2
15:55 70.5 °F 65.1 °F 30.04 in Calm   2 mph 83% 0 in meteobridge W/m2
16:00 70.5 °F 65.1 °F 30.04 in Calm   2 mph 83% 0 in meteobridge W/m2
16:05 70.5 °F 65.1 °F 30.04 in Calm     83% 0 in meteobridge W/m2
16:10 70.7 °F 65.3 °F 30.04 in Calm     83% 0 in meteobridge W/m2
16:15 70.7 °F 65.3 °F 30.03 in Calm     83% 0 in meteobridge W/m2
16:20 70.9 °F 65.5 °F 30.03 in Calm   1 mph 83% 0 in meteobridge W/m2
16:25 71.1 °F 65.7 °F 30.03 in Calm   1 mph 83% 0 in meteobridge W/m2
16:30 71.1 °F 65.3 °F 30.03 in Calm   1 mph 82% 0 in meteobridge W/m2
16:35 71.2 °F 65.8 °F 30.03 in Calm     83% 0 in meteobridge W/m2
16:40 71.2 °F 66.2 °F 30.03 in Calm     84% 0 in meteobridge W/m2
16:45 71.6 °F 65.8 °F 30.03 in Calm   2 mph 82% 0 in meteobridge W/m2
16:50 71.6 °F 65.8 °F 30.03 in Calm   1 mph 82% 0 in meteobridge W/m2
16:55 71.6 °F 65.8 °F 30.03 in Calm   2 mph 82% 0 in meteobridge W/m2
17:00 71.6 °F 65.5 °F 30.04 in Calm     81% 0 in meteobridge W/m2
17:05 71.8 °F 66 °F 30.04 in Calm   1 mph 82% 0 in meteobridge W/m2
17:10 71.8 °F 66 °F 30.04 in Calm     82% 0 in meteobridge W/m2
17:15 71.6 °F 65.5 °F 30.04 in Calm   4 mph 81% 0 in meteobridge W/m2
17:20 71.4 °F 66 °F 30.04 in Calm     83% 0 in meteobridge W/m2
17:25 71.4 °F 66 °F 30.03 in SE 0.9 mph 1 mph 83% 0 in meteobridge W/m2
17:30 71.4 °F 65.7 °F 30.04 in Calm   1 mph 82% 0 in meteobridge W/m2
17:35 71.2 °F 65.8 °F 30.04 in Calm   2 mph 83% 0 in meteobridge W/m2
17:40 71.2 °F 65.5 °F 30.04 in Calm   4 mph 82% 0 in meteobridge W/m2
17:45 71.2 °F 65.8 °F 30.03 in Calm   1 mph 83% 0 in meteobridge W/m2
17:50 71.1 °F 65.7 °F 30.03 in Calm   1 mph 83% 0 in meteobridge W/m2
17:55 71.1 °F 66 °F 30.03 in Calm     84% 0 in meteobridge W/m2
18:00 71.1 °F 65.7 °F 30.04 in Calm     83% 0 in meteobridge W/m2
18:05 71.1 °F 66 °F 30.04 in SE 0.9 mph 1 mph 84% 0 in meteobridge W/m2
18:10 70.9 °F 65.8 °F 30.04 in SE 0.9 mph 1 mph 84% 0 in meteobridge W/m2
18:15 70.7 °F 65.7 °F 30.04 in Calm   1 mph 84% 0 in meteobridge W/m2
18:20 70.5 °F 65.5 °F 30.04 in Calm   2 mph 84% 0 in meteobridge W/m2
18:25 70.5 °F 65.8 °F 30.04 in Calm   1 mph 85% 0 in meteobridge W/m2
18:30 70.3 °F 66 °F 30.04 in Calm     86% 0 in meteobridge W/m2
18:35 70 °F 66 °F 30.04 in Calm   1 mph 87% 0 in meteobridge W/m2
18:40 69.4 °F 66 °F 30.04 in Calm     89% 0.01 in meteobridge W/m2
18:45 69.1 °F 66.4 °F 30.04 in Calm     91% 0.01 in meteobridge W/m2
18:50 68.5 °F 65.8 °F 30.04 in Calm     91% 0.01 in meteobridge W/m2
18:55 68.2 °F 65.8 °F 30.04 in Calm     92% 0.02 in meteobridge W/m2
19:00 68 °F 65.8 °F 30.04 in Calm     93% 0.02 in meteobridge W/m2
19:05 67.8 °F 66 °F 30.05 in Calm     94% 0.02 in meteobridge W/m2
19:10 67.6 °F 65.5 °F 30.05 in Calm     93% 0.02 in meteobridge W/m2
19:15 67.6 °F 65.5 °F 30.05 in Calm     93% 0.02 in meteobridge W/m2
19:20 67.6 °F 65.8 °F 30.05 in Calm     94% 0.02 in meteobridge W/m2
19:25 67.6 °F 65.8 °F 30.04 in Calm     94% 0.02 in meteobridge W/m2
19:30 67.6 °F 65.5 °F 30.04 in Calm     93% 0.02 in meteobridge W/m2
19:35 67.6 °F 65.5 °F 30.03 in Calm   1 mph 93% 0.02 in meteobridge W/m2
19:40 67.6 °F 65.3 °F 30.03 in Calm     92% 0.01 in meteobridge W/m2
19:45 67.6 °F 64.9 °F 30.03 in Calm     91% 0.01 in meteobridge W/m2
19:50 67.6 °F 65.3 °F 30.03 in Calm     92% 0.01 in meteobridge W/m2
19:55 67.6 °F 65.3 °F 30.03 in Calm     92% 0 in meteobridge W/m2
20:00 67.6 °F 65.3 °F 30.03 in Calm     92% 0 in meteobridge W/m2
20:05 67.6 °F 64.9 °F 30.03 in Calm   1 mph 91% 0 in meteobridge W/m2
20:10 67.6 °F 64.9 °F 30.04 in Calm     91% 0 in meteobridge W/m2
20:15 67.6 °F 64.9 °F 30.04 in Calm     91% 0 in meteobridge W/m2
20:20 67.6 °F 64.9 °F 30.04 in Calm     91% 0 in meteobridge W/m2
20:25 67.6 °F 64.9 °F 30.05 in Calm     91% 0 in meteobridge W/m2
20:30 67.6 °F 64.9 °F 30.05 in Calm     91% 0 in meteobridge W/m2
20:35 67.6 °F 65.3 °F 30.05 in Calm     92% 0 in meteobridge W/m2
20:40 67.6 °F 65.3 °F 30.05 in Calm     92% 0 in meteobridge W/m2
20:45 67.5 °F 65.1 °F 30.06 in Calm     92% 0 in meteobridge W/m2
EllijayWeather
Compliments of Weather Underground - 2.25 mb